createdAt,value
2023-02-08T00:00:54.920Z,22.57
2023-02-08T00:03:22.219Z,21.90
2023-02-08T00:05:49.748Z,22.73
2023-02-08T00:08:16.962Z,23.60
2023-02-08T00:10:44.530Z,25.93
2023-02-08T00:13:11.754Z,25.50
2023-02-08T00:15:42.852Z,23.83
2023-02-08T00:18:10.321Z,23.83
2023-02-08T00:20:40.877Z,22.20
2023-02-08T00:23:08.296Z,19.77
2023-02-08T00:25:35.681Z,22.10
2023-02-08T00:28:04.638Z,20.17
2023-02-08T00:30:31.971Z,20.90
2023-02-08T00:33:01.186Z,21.63
2023-02-08T00:35:28.887Z,20.20
2023-02-08T00:37:57.407Z,23.23
2023-02-08T00:40:25.471Z,22.03
2023-02-08T00:42:53.125Z,23.23
2023-02-08T00:45:20.529Z,21.90
2023-02-08T00:47:47.656Z,25.53
2023-02-08T00:50:14.841Z,22.43
2023-02-08T00:52:42.208Z,20.70
2023-02-08T00:55:09.763Z,21.87
2023-02-08T00:57:37.158Z,22.77
2023-02-08T01:00:06.478Z,23.77
2023-02-08T01:02:33.647Z,23.73
2023-02-08T01:05:00.878Z,28.70
2023-02-08T01:07:27.963Z,31.73
2023-02-08T01:09:55.099Z,24.03
2023-02-08T01:12:22.186Z,23.90
2023-02-08T01:14:49.502Z,22.40
2023-02-08T01:17:16.637Z,28.37
2023-02-08T01:19:43.736Z,24.27
2023-02-08T01:22:10.912Z,21.90
2023-02-08T01:24:38.041Z,21.87
2023-02-08T01:27:05.140Z,27.47
2023-02-08T01:29:32.328Z,21.07
2023-02-08T01:32:00.633Z,23.90
2023-02-08T01:34:27.755Z,22.63
2023-02-08T01:36:54.883Z,22.67
2023-02-08T01:39:21.988Z,20.90
2023-02-08T01:41:49.162Z,23.53
2023-02-08T01:44:19.044Z,24.70
2023-02-08T01:46:47.883Z,24.60
2023-02-08T01:49:20.189Z,25.83
2023-02-08T01:51:59.348Z,25.30
2023-02-08T01:54:28.507Z,24.90
2023-02-08T01:56:55.757Z,22.37
2023-02-08T01:59:28.214Z,24.63
2023-02-08T02:01:57.079Z,24.97
2023-02-08T02:04:24.314Z,27.77
2023-02-08T02:06:54.105Z,29.47
2023-02-08T02:09:28.913Z,26.60
2023-02-08T02:11:56.666Z,20.93
2023-02-08T02:14:24.570Z,27.23
2023-02-08T02:16:51.768Z,21.90
2023-02-08T02:19:27.121Z,22.07
2023-02-08T02:22:13.094Z,25.77
2023-02-08T02:24:49.098Z,26.83
2023-02-08T02:27:33.647Z,27.93
2023-02-08T02:30:19.568Z,25.87
2023-02-08T02:33:05.611Z,23.67
2023-02-08T02:35:51.432Z,24.47
2023-02-08T02:38:29.524Z,22.80
2023-02-08T02:41:00.712Z,23.23
2023-02-08T02:43:42.586Z,23.63
2023-02-08T02:46:17.036Z,24.93
2023-02-08T02:48:44.078Z,24.87
2023-02-08T02:51:31.413Z,26.20
2023-02-08T02:54:03.097Z,25.47
2023-02-08T02:56:32.328Z,26.07
2023-02-08T02:59:02.034Z,24.17
2023-02-08T03:01:29.911Z,24.43
2023-02-08T03:03:57.313Z,22.87
2023-02-08T03:06:35.987Z,24.07
2023-02-08T03:09:21.701Z,24.23
2023-02-08T03:11:55.700Z,21.67
2023-02-08T03:14:28.877Z,23.47
2023-02-08T03:17:01.948Z,23.67
2023-02-08T03:19:37.136Z,21.97
2023-02-08T03:22:04.201Z,22.00
2023-02-08T03:24:37.221Z,21.87
2023-02-08T03:27:07.133Z,22.27
2023-02-08T03:29:52.675Z,20.77
2023-02-08T03:32:19.749Z,23.80
2023-02-08T03:34:49.456Z,23.47
2023-02-08T03:37:22.242Z,26.17
2023-02-08T03:39:50.614Z,23.27
2023-02-08T03:42:24.735Z,24.67
2023-02-08T03:44:55.525Z,21.83
2023-02-08T03:47:24.023Z,26.40
2023-02-08T03:49:53.332Z,23.53
2023-02-08T03:52:21.782Z,23.27
2023-02-08T03:54:53.832Z,23.70
2023-02-08T03:57:28.315Z,26.50
2023-02-08T04:00:00.563Z,24.63
2023-02-08T04:02:28.873Z,25.13
2023-02-08T04:04:56.257Z,31.33
2023-02-08T04:07:23.361Z,21.97
2023-02-08T04:09:50.483Z,24.43
2023-02-08T04:12:17.556Z,27.57
2023-02-08T04:14:44.632Z,24.07
2023-02-08T04:17:11.717Z,26.23
2023-02-08T04:19:38.840Z,21.57
2023-02-08T04:22:05.981Z,26.77
2023-02-08T04:24:33.061Z,28.40
2023-02-08T04:27:00.184Z,25.73
2023-02-08T04:29:27.992Z,24.33
2023-02-08T04:31:55.132Z,24.27
2023-02-08T04:34:22.289Z,26.60
2023-02-08T04:36:49.365Z,24.27
2023-02-08T04:39:16.464Z,23.53
2023-02-08T04:41:43.544Z,25.00
2023-02-08T04:44:10.693Z,24.50
2023-02-08T04:46:37.832Z,21.97
2023-02-08T04:49:05.011Z,25.47
2023-02-08T04:51:32.093Z,22.50
2023-02-08T04:53:59.246Z,25.43
2023-02-08T04:56:26.307Z,20.13
2023-02-08T04:58:53.428Z,20.87
2023-02-08T05:01:20.569Z,25.17
2023-02-08T05:03:47.708Z,22.77
2023-02-08T05:06:14.826Z,26.93
2023-02-08T05:08:41.957Z,23.20
2023-02-08T05:11:09.018Z,24.97
2023-02-08T05:13:36.125Z,21.27
2023-02-08T05:16:03.456Z,21.93
2023-02-08T05:18:30.580Z,24.77
2023-02-08T05:20:58.795Z,23.87
2023-02-08T05:23:26.325Z,22.90
2023-02-08T05:25:53.656Z,22.03
2023-02-08T05:28:20.849Z,24.87
2023-02-08T05:30:48.355Z,24.07
2023-02-08T05:33:15.779Z,22.27
2023-02-08T05:35:43.047Z,25.63
2023-02-08T05:38:10.124Z,22.47
2023-02-08T05:40:37.263Z,24.07
2023-02-08T05:43:04.475Z,22.90
2023-02-08T05:45:31.575Z,23.40
2023-02-08T05:47:58.708Z,22.77
2023-02-08T05:50:25.754Z,21.40
2023-02-08T05:52:52.905Z,23.13
2023-02-08T05:55:19.995Z,26.10
2023-02-08T05:57:47.082Z,21.07
2023-02-08T06:00:14.536Z,24.60
2023-02-08T06:02:41.668Z,29.43
2023-02-08T06:05:08.922Z,24.03
2023-02-08T06:07:35.991Z,24.00
2023-02-08T06:10:03.275Z,22.93
2023-02-08T06:12:30.365Z,22.10
2023-02-08T06:14:57.471Z,26.13
2023-02-08T06:17:24.530Z,24.27
2023-02-08T06:19:51.618Z,27.07
2023-02-08T06:22:18.693Z,26.97
2023-02-08T06:24:45.827Z,21.40
2023-02-08T06:27:12.869Z,25.03
2023-02-08T06:29:39.938Z,29.97
2023-02-08T06:32:07.100Z,30.13
2023-02-08T06:34:34.215Z,26.13
2023-02-08T06:37:02.257Z,24.83
2023-02-08T06:39:29.780Z,24.33
2023-02-08T06:41:56.898Z,23.00
2023-02-08T06:44:24.325Z,24.03
2023-02-08T06:46:51.658Z,23.10
2023-02-08T06:49:18.752Z,25.23
2023-02-08T06:51:45.833Z,29.47
2023-02-08T06:54:12.908Z,22.27
2023-02-08T06:56:42.039Z,24.60
2023-02-08T06:59:09.108Z,24.43
2023-02-08T07:01:36.221Z,26.20
2023-02-08T07:04:03.326Z,23.37
2023-02-08T07:06:30.458Z,22.03
2023-02-08T07:08:57.690Z,23.93
2023-02-08T07:11:24.802Z,22.90
2023-02-08T07:13:52.526Z,24.67
2023-02-08T07:16:20.257Z,22.13
2023-02-08T07:18:47.570Z,25.07
2023-02-08T07:21:14.658Z,24.80
2023-02-08T07:23:42.044Z,25.00
2023-02-08T07:26:10.693Z,21.77
2023-02-08T07:28:37.847Z,26.03
2023-02-08T07:31:07.634Z,24.97
2023-02-08T07:33:35.083Z,23.60
2023-02-08T07:36:03.303Z,22.50
2023-02-08T07:38:30.444Z,24.33
2023-02-08T07:41:03.547Z,24.27
2023-02-08T07:43:30.802Z,26.53
2023-02-08T07:45:57.973Z,23.60
2023-02-08T07:48:25.100Z,23.03
2023-02-08T07:50:52.170Z,27.40
2023-02-08T07:53:19.260Z,24.43
2023-02-08T07:55:46.831Z,21.27
2023-02-08T07:58:14.232Z,22.23
2023-02-08T08:00:41.626Z,25.87
2023-02-08T08:03:08.960Z,24.73
2023-02-08T08:05:36.082Z,24.17
2023-02-08T08:08:03.156Z,24.80
2023-02-08T08:10:30.235Z,26.77
2023-02-08T08:12:57.345Z,19.03
2023-02-08T08:15:24.438Z,24.23
2023-02-08T08:17:51.482Z,23.17
2023-02-08T08:20:18.592Z,22.77
2023-02-08T08:22:45.715Z,24.70
2023-02-08T08:25:12.866Z,22.30
2023-02-08T08:27:40.006Z,24.00
2023-02-08T08:30:07.958Z,19.67
2023-02-08T08:32:35.051Z,20.03
2023-02-08T08:35:02.148Z,19.57
2023-02-08T08:37:29.475Z,23.33
2023-02-08T08:39:56.679Z,20.87
2023-02-08T08:42:23.827Z,22.07
2023-02-08T08:44:50.951Z,19.73
2023-02-08T08:47:18.077Z,21.97
2023-02-08T08:49:45.248Z,19.60
2023-02-08T08:52:13.082Z,23.10
2023-02-08T08:54:40.171Z,22.57
2023-02-08T08:57:07.409Z,18.13
2023-02-08T08:59:34.541Z,22.17
2023-02-08T09:02:01.745Z,18.33
2023-02-08T09:04:28.897Z,19.77
2023-02-08T09:06:56.057Z,16.93
2023-02-08T09:09:23.641Z,18.90
2023-02-08T09:11:51.119Z,16.87
2023-02-08T09:14:18.217Z,19.47
2023-02-08T09:16:48.017Z,19.77
2023-02-08T09:19:16.182Z,19.70
2023-02-08T09:21:43.596Z,23.63
2023-02-08T09:24:11.055Z,21.00
2023-02-08T09:26:38.835Z,16.70
2023-02-08T09:29:06.789Z,18.77
2023-02-08T09:31:37.813Z,16.20
2023-02-08T09:34:06.290Z,15.93
2023-02-08T09:36:35.004Z,13.40
2023-02-08T09:39:04.687Z,13.47
2023-02-08T09:41:50.573Z,17.47
2023-02-08T09:44:21.125Z,14.70
2023-02-08T09:46:59.382Z,15.97
2023-02-08T09:49:33.203Z,15.40
2023-02-08T09:52:05.877Z,15.53
2023-02-08T09:54:35.634Z,12.60
2023-02-08T09:57:07.021Z,14.87
2023-02-08T09:59:34.820Z,19.03
2023-02-08T10:02:24.971Z,13.10
2023-02-08T10:04:58.284Z,13.00
2023-02-08T10:07:28.817Z,13.60
2023-02-08T10:09:57.471Z,12.33
2023-02-08T10:12:24.556Z,12.50
2023-02-08T10:14:57.642Z,11.50
2023-02-08T10:17:39.763Z,15.83
2023-02-08T10:20:30.144Z,11.43
2023-02-08T10:23:19.374Z,9.60
2023-02-08T10:26:00.202Z,15.23
2023-02-08T10:28:42.865Z,11.87
2023-02-08T10:31:36.370Z,16.33
2023-02-08T10:34:08.436Z,10.47
2023-02-08T10:36:41.844Z,14.37
2023-02-08T10:39:19.842Z,12.20
2023-02-08T10:41:47.628Z,12.87
2023-02-08T10:44:25.332Z,11.43
2023-02-08T10:47:11.281Z,10.77
2023-02-08T10:49:45.438Z,10.43
2023-02-08T10:52:12.941Z,12.50
2023-02-08T10:54:40.111Z,18.40
2023-02-08T10:57:13.136Z,14.27
2023-02-08T10:59:49.674Z,9.77
2023-02-08T11:02:26.722Z,14.97
2023-02-08T11:05:01.673Z,11.63
2023-02-08T11:07:29.085Z,10.97
2023-02-08T11:10:13.597Z,13.03
2023-02-08T11:12:41.586Z,11.03
2023-02-08T11:15:22.268Z,12.83
2023-02-08T11:17:53.899Z,11.67
2023-02-08T11:20:29.747Z,10.83
2023-02-08T11:22:56.856Z,12.33
2023-02-08T11:25:38.089Z,9.10
2023-02-08T11:28:05.760Z,9.07
2023-02-08T11:30:33.437Z,10.53
2023-02-08T11:33:18.561Z,9.30
2023-02-08T11:35:53.548Z,7.47
2023-02-08T11:38:27.268Z,7.83
2023-02-08T11:40:55.793Z,13.37
2023-02-08T11:43:27.986Z,9.10
2023-02-08T11:45:56.348Z,10.97
2023-02-08T11:48:31.586Z,12.60
2023-02-08T11:51:00.642Z,12.33
2023-02-08T11:53:30.065Z,11.80
2023-02-08T11:56:08.396Z,9.87
2023-02-08T11:58:35.694Z,11.80
2023-02-08T12:01:04.892Z,8.63
2023-02-08T12:03:33.755Z,6.93
2023-02-08T12:06:03.681Z,8.70
2023-02-08T12:08:30.826Z,12.33
2023-02-08T12:11:04.259Z,9.90
2023-02-08T12:13:49.992Z,9.97
2023-02-08T12:16:34.211Z,5.20
2023-02-08T12:19:01.900Z,5.60
2023-02-08T12:21:40.709Z,4.53
2023-02-08T12:24:18.710Z,6.30
2023-02-08T12:26:45.787Z,6.33
2023-02-08T12:29:47.823Z,6.00
2023-02-08T12:32:30.521Z,5.53
2023-02-08T12:35:03.348Z,5.53
2023-02-08T12:38:07.918Z,5.70
2023-02-08T12:40:49.775Z,6.90
2023-02-08T12:43:19.863Z,7.63
2023-02-08T12:45:59.031Z,10.17
2023-02-08T12:48:41.514Z,8.67
2023-02-08T12:51:17.840Z,12.10
2023-02-08T12:53:47.469Z,7.30
2023-02-08T12:56:19.273Z,8.03
2023-02-08T12:58:59.083Z,7.77
2023-02-08T13:01:34.832Z,9.63
2023-02-08T13:04:07.054Z,6.27
2023-02-08T13:06:40.029Z,5.63
2023-02-08T13:09:14.380Z,7.30
2023-02-08T13:11:47.861Z,6.20
2023-02-08T13:14:24.101Z,4.60
2023-02-08T13:16:55.072Z,7.07
2023-02-08T13:19:25.147Z,4.10
2023-02-08T13:21:53.116Z,4.33
2023-02-08T13:24:27.395Z,6.00
2023-02-08T13:26:54.469Z,4.23
2023-02-08T13:29:23.344Z,3.67
2023-02-08T13:32:13.949Z,4.13
2023-02-08T13:34:46.036Z,5.87
2023-02-08T13:37:29.520Z,7.10
2023-02-08T13:40:07.233Z,6.33
2023-02-08T13:42:34.308Z,6.40
2023-02-08T13:45:02.130Z,5.80
2023-02-08T13:47:29.197Z,5.27
2023-02-08T13:49:59.994Z,8.03
2023-02-08T13:52:47.745Z,6.23
2023-02-08T13:55:31.987Z,5.23
2023-02-08T13:58:00.125Z,6.60
2023-02-08T14:00:29.600Z,6.30
2023-02-08T14:02:59.936Z,7.40
2023-02-08T14:05:40.813Z,9.63
2023-02-08T14:08:09.348Z,10.37
2023-02-08T14:10:42.284Z,7.77
2023-02-08T14:13:15.250Z,5.83
2023-02-08T14:15:43.563Z,8.00
2023-02-08T14:18:25.783Z,6.03
2023-02-08T14:21:02.572Z,5.40
2023-02-08T14:23:32.690Z,5.77
2023-02-08T14:26:02.776Z,6.13
2023-02-08T14:28:32.647Z,5.37
2023-02-08T14:31:01.826Z,5.83
2023-02-08T14:33:34.108Z,5.27
2023-02-08T14:36:05.838Z,6.80
2023-02-08T14:38:32.926Z,7.60
2023-02-08T14:41:01.381Z,8.07
2023-02-08T14:43:31.550Z,5.77
2023-02-08T14:45:59.493Z,4.60
2023-02-08T14:48:30.774Z,5.67
2023-02-08T14:51:02.934Z,5.27
2023-02-08T14:53:33.882Z,6.47
2023-02-08T14:56:07.263Z,5.83
2023-02-08T14:58:41.205Z,7.83
2023-02-08T15:01:13.609Z,8.90
2023-02-08T15:03:42.182Z,5.70
2023-02-08T15:06:23.011Z,5.63
2023-02-08T15:08:51.956Z,4.57
2023-02-08T15:11:21.942Z,4.73
2023-02-08T15:13:50.927Z,4.90
2023-02-08T15:16:18.093Z,5.97
2023-02-08T15:18:46.535Z,5.97
2023-02-08T15:21:18.369Z,6.73
2023-02-08T15:23:58.665Z,7.27
2023-02-08T15:26:26.565Z,8.53
2023-02-08T15:28:53.960Z,6.63
2023-02-08T15:31:27.328Z,8.33
2023-02-08T15:33:54.734Z,6.17
2023-02-08T15:36:25.123Z,8.10
2023-02-08T15:38:52.262Z,6.93
2023-02-08T15:41:27.242Z,10.67
2023-02-08T15:44:06.511Z,6.60
2023-02-08T15:46:35.327Z,7.90
2023-02-08T15:49:02.505Z,8.97
2023-02-08T15:51:30.206Z,8.00
2023-02-08T15:53:57.472Z,6.43
2023-02-08T15:56:36.316Z,7.90
2023-02-08T15:59:06.177Z,12.43
2023-02-08T16:01:34.361Z,10.27
2023-02-08T16:04:06.091Z,12.93
2023-02-08T16:06:39.284Z,13.27
2023-02-08T16:09:06.824Z,19.43
2023-02-08T16:11:35.096Z,25.30
2023-02-08T16:14:03.469Z,17.17
2023-02-08T16:16:36.942Z,19.47
2023-02-08T16:19:05.214Z,19.40
2023-02-08T16:21:34.978Z,16.63
2023-02-08T16:24:20.987Z,19.57
2023-02-08T16:27:07.464Z,15.80
2023-02-08T16:29:36.490Z,17.53
2023-02-08T16:32:11.166Z,20.67
2023-02-08T16:34:40.562Z,18.83
2023-02-08T16:37:18.209Z,18.03
2023-02-08T16:39:58.590Z,17.63
2023-02-08T16:42:29.321Z,16.50
2023-02-08T16:45:01.155Z,14.33
2023-02-08T16:47:36.676Z,15.67
2023-02-08T16:50:04.256Z,12.60
2023-02-08T16:52:31.526Z,14.67
2023-02-08T16:54:59.114Z,12.67
2023-02-08T16:57:38.042Z,12.13
2023-02-08T17:00:13.415Z,12.23
2023-02-08T17:02:40.561Z,14.80
2023-02-08T17:05:07.751Z,16.37
2023-02-08T17:07:34.906Z,15.30
2023-02-08T17:10:01.983Z,17.97
2023-02-08T17:12:29.104Z,15.40
2023-02-08T17:14:56.549Z,15.53
2023-02-08T17:17:23.708Z,18.57
2023-02-08T17:19:51.563Z,16.67
2023-02-08T17:22:19.055Z,21.07
2023-02-08T17:24:46.151Z,18.30
2023-02-08T17:27:14.116Z,18.30
2023-02-08T17:29:41.806Z,19.37
2023-02-08T17:32:08.997Z,23.63
2023-02-08T17:34:36.673Z,24.83
2023-02-08T17:37:03.801Z,27.00
2023-02-08T17:39:30.905Z,33.03
2023-02-08T17:41:58.620Z,23.93
2023-02-08T17:44:25.776Z,25.80
2023-02-08T17:46:52.895Z,24.30
2023-02-08T17:49:19.981Z,27.90
2023-02-08T17:51:47.087Z,21.77
2023-02-08T17:54:14.849Z,28.40
2023-02-08T17:56:42.014Z,21.83
2023-02-08T17:59:09.152Z,20.73
2023-02-08T18:01:36.432Z,23.10
2023-02-08T18:04:03.575Z,19.53
2023-02-08T18:06:31.206Z,22.53
2023-02-08T18:08:59.463Z,21.03
2023-02-08T18:11:26.610Z,24.03
2023-02-08T18:13:54.556Z,22.70
2023-02-08T18:16:25.831Z,19.20
2023-02-08T18:18:55.972Z,20.70
2023-02-08T18:21:25.403Z,19.67
2023-02-08T18:23:52.693Z,21.00
2023-02-08T18:26:21.761Z,22.37
2023-02-08T18:28:52.293Z,17.27
2023-02-08T18:31:20.373Z,19.07
2023-02-08T18:33:48.401Z,17.80
2023-02-08T18:36:16.094Z,21.10
2023-02-08T18:38:45.640Z,21.87
2023-02-08T18:41:14.065Z,19.20
2023-02-08T18:43:41.624Z,18.73
2023-02-08T18:46:10.276Z,21.90
2023-02-08T18:48:38.526Z,19.03
2023-02-08T18:51:05.982Z,21.60
2023-02-08T18:53:34.632Z,19.40
2023-02-08T18:56:02.429Z,23.90
2023-02-08T18:58:29.837Z,21.83
2023-02-08T19:01:04.855Z,19.23
2023-02-08T19:03:32.279Z,18.97
2023-02-08T19:06:09.740Z,19.63
2023-02-08T19:08:37.604Z,17.53
2023-02-08T19:11:05.585Z,16.03
2023-02-08T19:13:34.368Z,16.37
2023-02-08T19:16:01.469Z,18.13
2023-02-08T19:18:28.571Z,20.33
2023-02-08T19:20:55.713Z,17.83
2023-02-08T19:23:22.865Z,18.93
2023-02-08T19:25:49.928Z,16.13
2023-02-08T19:28:17.068Z,17.07
2023-02-08T19:30:44.249Z,18.43
2023-02-08T19:33:11.460Z,15.70
2023-02-08T19:35:39.071Z,18.13
2023-02-08T19:38:06.259Z,18.40
2023-02-08T19:40:33.360Z,18.40
2023-02-08T19:43:00.504Z,20.80
2023-02-08T19:45:27.664Z,24.37
2023-02-08T19:47:55.040Z,24.10
2023-02-08T19:50:22.338Z,26.17
2023-02-08T19:52:49.436Z,20.93
2023-02-08T19:55:16.604Z,20.03
2023-02-08T19:57:43.961Z,20.77
2023-02-08T20:00:23.063Z,16.80
2023-02-08T20:02:51.261Z,18.67
2023-02-08T20:05:18.397Z,18.43
2023-02-08T20:07:45.471Z,16.90
2023-02-08T20:10:12.763Z,23.37
2023-02-08T20:12:39.897Z,17.13
2023-02-08T20:15:07.103Z,16.43
2023-02-08T20:17:34.235Z,16.20
2023-02-08T20:20:01.375Z,18.40
2023-02-08T20:22:28.485Z,14.47
2023-02-08T20:24:55.581Z,15.13
2023-02-08T20:27:22.802Z,17.43
2023-02-08T20:29:49.896Z,20.83
2023-02-08T20:32:18.332Z,17.03
2023-02-08T20:34:54.124Z,19.07
2023-02-08T20:37:26.004Z,17.10
2023-02-08T20:39:53.144Z,17.60
2023-02-08T20:42:20.215Z,15.47
2023-02-08T20:44:47.325Z,19.30
2023-02-08T20:47:18.949Z,15.87
2023-02-08T20:49:46.500Z,24.87
2023-02-08T20:52:13.645Z,33.77
2023-02-08T20:54:42.065Z,25.20
2023-02-08T20:57:18.025Z,27.43
2023-02-08T20:59:46.058Z,20.17
2023-02-08T21:02:17.505Z,21.50
2023-02-08T21:04:44.845Z,18.90
2023-02-08T21:07:13.041Z,17.80
2023-02-08T21:09:40.177Z,18.97
2023-02-08T21:12:07.566Z,18.63
2023-02-08T21:14:34.696Z,17.40
2023-02-08T21:17:01.835Z,20.83
2023-02-08T21:19:29.840Z,17.73
2023-02-08T21:21:58.642Z,18.30
2023-02-08T21:24:26.367Z,22.03
2023-02-08T21:26:54.267Z,17.57
2023-02-08T21:29:21.893Z,19.27
2023-02-08T21:31:54.151Z,17.67
2023-02-08T21:34:21.674Z,20.93
2023-02-08T21:36:48.914Z,22.13
2023-02-08T21:39:16.073Z,18.90
2023-02-08T21:41:43.249Z,20.43
2023-02-08T21:44:11.042Z,21.23
2023-02-08T21:46:38.184Z,22.47
2023-02-08T21:49:23.779Z,20.53
2023-02-08T21:52:09.760Z,24.70
2023-02-08T21:54:44.009Z,22.77
2023-02-08T21:57:18.837Z,25.30
2023-02-08T21:59:47.372Z,21.93
2023-02-08T22:02:16.615Z,24.97
2023-02-08T22:04:46.630Z,19.40
2023-02-08T22:07:13.955Z,21.57
2023-02-08T22:09:42.008Z,22.03
2023-02-08T22:12:13.343Z,18.97
2023-02-08T22:14:40.506Z,26.93
2023-02-08T22:17:07.679Z,24.33
2023-02-08T22:19:34.820Z,26.83
2023-02-08T22:22:02.820Z,24.60
2023-02-08T22:24:29.926Z,20.27
2023-02-08T22:26:57.003Z,22.20
2023-02-08T22:29:24.230Z,22.83
2023-02-08T22:31:51.432Z,22.60
2023-02-08T22:34:19.687Z,21.37
2023-02-08T22:36:47.052Z,34.87
2023-02-08T22:39:14.209Z,25.17
2023-02-08T22:41:41.282Z,25.03
2023-02-08T22:44:08.553Z,23.42
2023-02-08T22:46:35.722Z,23.20
2023-02-08T22:49:02.872Z,26.03
2023-02-08T22:51:30.239Z,23.97
2023-02-08T22:53:57.325Z,19.30
2023-02-08T22:56:24.432Z,19.43
2023-02-08T22:58:51.510Z,16.60
2023-02-08T23:01:18.778Z,20.53
2023-02-08T23:03:45.977Z,15.87
2023-02-08T23:06:14.999Z,17.33
2023-02-08T23:08:42.131Z,17.97
2023-02-08T23:11:09.394Z,18.10
2023-02-08T23:13:36.520Z,16.50
2023-02-08T23:16:03.666Z,20.60
2023-02-08T23:18:30.755Z,19.53
2023-02-08T23:20:58.034Z,19.63
2023-02-08T23:23:25.141Z,20.37
2023-02-08T23:25:52.285Z,20.03
2023-02-08T23:28:19.424Z,19.50
2023-02-08T23:30:46.918Z,20.63
2023-02-08T23:33:14.215Z,21.60
2023-02-08T23:35:41.771Z,21.17
2023-02-08T23:38:09.372Z,21.73
2023-02-08T23:40:36.497Z,18.33
2023-02-08T23:43:03.675Z,21.57
2023-02-08T23:45:30.775Z,18.43
2023-02-08T23:47:58.309Z,20.13
2023-02-08T23:50:25.752Z,17.97
2023-02-08T23:52:52.866Z,18.60
2023-02-08T23:55:20.131Z,21.37
2023-02-08T23:57:47.198Z,18.63
